Princeton's Hourly Summary for Sunday, May 13, 2018
Hour Temp
(f)
RH
(%)
Solar Rad.
(MJ/m2)
Rainfall
(in)
Wind
(mph)
5/13/2018 12:00 AM 75 71 0 0 3.51
5/13/2018 1:00 AM 74 72 0 0 4.54
5/13/2018 2:00 AM 74 74 0 0 5.92
5/13/2018 3:00 AM 74 77 0 0 6.71
5/13/2018 4:00 AM 73 81 0 0 6.24
5/13/2018 5:00 AM 72 84 0 0 6.2
5/13/2018 6:00 AM 71 87 0 0 6.27
5/13/2018 7:00 AM 70 99 0.04 0 4.76
5/13/2018 8:00 AM 71 94 0.29 0 5.38
5/13/2018 9:00 AM 73 82 0.68 0 7.24
5/13/2018 10:00 AM 74 75 1.13 0 7.1
5/13/2018 11:00 AM 77 65 2.29 0 8.08
5/13/2018 12:00 PM 79 60 3.03 0 9.43
5/13/2018 1:00 PM 81 58 3.45 0 9.4
5/13/2018 2:00 PM 83 53 3.48 0 9.63
5/13/2018 3:00 PM 84 49 3.35 0 9.42
5/13/2018 4:00 PM 85 47 2.91 0 9.15
5/13/2018 5:00 PM 85 48 2.09 0 8.5
5/13/2018 6:00 PM 85 48 1.71 0 8.61
5/13/2018 7:00 PM 85 49 0.99 0 6.87
5/13/2018 8:00 PM 82 53 0.26 0 4.7
5/13/2018 9:00 PM 79 59 0 0 1.94
5/13/2018 10:00 PM 77 66 0 0 1.33
5/13/2018 11:00 PM 76 70 0 0 1.38
Data Summary 77 67 25.70 0.00 6.35